sensor_id;sensor_type;location;lat;lon;timestamp;temperature;humidity
7388;DHT22;3735;50.136;11.062;2022-12-10T00:01:13;-2.00;99.90
7388;DHT22;3735;50.136;11.062;2022-12-10T00:03:42;-2.00;99.90
7388;DHT22;3735;50.136;11.062;2022-12-10T00:06:11;-2.00;99.90
7388;DHT22;3735;50.136;11.062;2022-12-10T00:08:39;-1.90;99.90
7388;DHT22;3735;50.136;11.062;2022-12-10T00:11:06;-2.00;99.90
7388;DHT22;3735;50.136;11.062;2022-12-10T00:13:34;-2.00;99.90
7388;DHT22;3735;50.136;11.062;2022-12-10T00:16:05;-2.00;99.90
7388;DHT22;3735;50.136;11.062;2022-12-10T00:18:33;-2.00;99.90
7388;DHT22;3735;50.136;11.062;2022-12-10T00:21:07;-1.90;99.90
7388;DHT22;3735;50.136;11.062;2022-12-10T00:23:36;-1.90;99.90
7388;DHT22;3735;50.136;11.062;2022-12-10T00:26:13;-1.90;99.90
7388;DHT22;3735;50.136;11.062;2022-12-10T00:28:42;-1.90;99.90
7388;DHT22;3735;50.136;11.062;2022-12-10T00:31:30;-1.90;99.90
7388;DHT22;3735;50.136;11.062;2022-12-10T00:34:01;-1.90;99.90
7388;DHT22;3735;50.136;11.062;2022-12-10T00:36:35;-1.80;99.90
7388;DHT22;3735;50.136;11.062;2022-12-10T00:39:16;-1.80;99.90
7388;DHT22;3735;50.136;11.062;2022-12-10T00:41:44;-1.80;99.90
7388;DHT22;3735;50.136;11.062;2022-12-10T00:44:10;-1.80;99.90
7388;DHT22;3735;50.136;11.062;2022-12-10T00:46:37;-1.70;99.90
7388;DHT22;3735;50.136;11.062;2022-12-10T00:49:03;-1.70;99.90
7388;DHT22;3735;50.136;11.062;2022-12-10T00:51:29;-1.70;99.90
7388;DHT22;3735;50.136;11.062;2022-12-10T00:53:57;-1.70;99.90
7388;DHT22;3735;50.136;11.062;2022-12-10T00:56:29;-1.70;99.90
7388;DHT22;3735;50.136;11.062;2022-12-10T00:58:58;-1.60;99.90
7388;DHT22;3735;50.136;11.062;2022-12-10T01:01:33;-1.60;99.90
7388;DHT22;3735;50.136;11.062;2022-12-10T01:04:09;-1.70;99.90
7388;DHT22;3735;50.136;11.062;2022-12-10T01:06:49;-1.70;99.90
7388;DHT22;3735;50.136;11.062;2022-12-10T01:09:22;-1.70;99.90
7388;DHT22;3735;50.136;11.062;2022-12-10T01:11:52;-1.60;99.90
7388;DHT22;3735;50.136;11.062;2022-12-10T01:14:22;-1.60;99.90
7388;DHT22;3735;50.136;11.062;2022-12-10T01:16:58;-1.60;99.90
7388;DHT22;3735;50.136;11.062;2022-12-10T01:19:28;-1.60;99.90
7388;DHT22;3735;50.136;11.062;2022-12-10T01:21:56;-1.60;99.90
7388;DHT22;3735;50.136;11.062;2022-12-10T01:24:24;-1.60;99.90
7388;DHT22;3735;50.136;11.062;2022-12-10T01:26:52;-1.50;99.90
7388;DHT22;3735;50.136;11.062;2022-12-10T01:29:18;-1.50;99.90
7388;DHT22;3735;50.136;11.062;2022-12-10T01:31:44;-1.60;99.90
7388;DHT22;3735;50.136;11.062;2022-12-10T01:34:13;-1.50;99.90
7388;DHT22;3735;50.136;11.062;2022-12-10T01:36:42;-1.50;99.90
7388;DHT22;3735;50.136;11.062;2022-12-10T01:39:12;-1.60;99.90
7388;DHT22;3735;50.136;11.062;2022-12-10T01:41:43;-1.50;99.90
7388;DHT22;3735;50.136;11.062;2022-12-10T01:46:56;-1.50;99.90
7388;DHT22;3735;50.136;11.062;2022-12-10T01:49:40;-1.50;99.90
7388;DHT22;3735;50.136;11.062;2022-12-10T01:52:09;-1.50;99.90
7388;DHT22;3735;50.136;11.062;2022-12-10T01:54:40;-1.50;99.90
7388;DHT22;3735;50.136;11.062;2022-12-10T01:57:27;-1.50;99.90
7388;DHT22;3735;50.136;11.062;2022-12-10T02:00:00;-1.50;99.90
7388;DHT22;3735;50.136;11.062;2022-12-10T02:02:53;-1.50;99.90
7388;DHT22;3735;50.136;11.062;2022-12-10T02:05:48;-1.60;99.90
7388;DHT22;3735;50.136;11.062;2022-12-10T02:08:27;-1.60;99.90
7388;DHT22;3735;50.136;11.062;2022-12-10T02:11:22;-1.60;99.90
7388;DHT22;3735;50.136;11.062;2022-12-10T02:14:08;-1.60;99.90
7388;DHT22;3735;50.136;11.062;2022-12-10T02:16:46;-1.60;99.90
7388;DHT22;3735;50.136;11.062;2022-12-10T02:19:46;-1.60;99.90
7388;DHT22;3735;50.136;11.062;2022-12-10T02:22:36;-1.70;99.90
7388;DHT22;3735;50.136;11.062;2022-12-10T02:25:11;-1.70;99.90
7388;DHT22;3735;50.136;11.062;2022-12-10T02:30:20;-1.70;99.90
7388;DHT22;3735;50.136;11.062;2022-12-10T02:32:48;-1.70;99.90
7388;DHT22;3735;50.136;11.062;2022-12-10T02:35:24;-1.70;99.90
7388;DHT22;3735;50.136;11.062;2022-12-10T02:38:01;-1.70;99.90
7388;DHT22;3735;50.136;11.062;2022-12-10T02:40:34;-1.60;99.90
7388;DHT22;3735;50.136;11.062;2022-12-10T02:43:02;-1.60;99.90
7388;DHT22;3735;50.136;11.062;2022-12-10T02:45:29;-1.60;99.90
7388;DHT22;3735;50.136;11.062;2022-12-10T02:47:58;-1.50;99.90
7388;DHT22;3735;50.136;11.062;2022-12-10T02:50:27;-1.50;99.90
7388;DHT22;3735;50.136;11.062;2022-12-10T02:52:53;-1.50;99.90
7388;DHT22;3735;50.136;11.062;2022-12-10T02:55:19;-1.40;99.90
7388;DHT22;3735;50.136;11.062;2022-12-10T03:00:25;-1.40;99.90
7388;DHT22;3735;50.136;11.062;2022-12-10T03:03:50;-1.40;99.90
7388;DHT22;3735;50.136;11.062;2022-12-10T03:06:36;-1.40;99.90
7388;DHT22;3735;50.136;11.062;2022-12-10T03:09:09;-1.40;99.90
7388;DHT22;3735;50.136;11.062;2022-12-10T03:11:43;-1.40;99.90
7388;DHT22;3735;50.136;11.062;2022-12-10T03:14:17;-1.40;99.90
7388;DHT22;3735;50.136;11.062;2022-12-10T03:16:55;-1.40;99.90
7388;DHT22;3735;50.136;11.062;2022-12-10T03:19:28;-1.30;99.90
7388;DHT22;3735;50.136;11.062;2022-12-10T03:21:59;-1.30;99.90
7388;DHT22;3735;50.136;11.062;2022-12-10T03:24:31;-1.30;99.90
7388;DHT22;3735;50.136;11.062;2022-12-10T03:26:58;-1.30;99.90
7388;DHT22;3735;50.136;11.062;2022-12-10T03:29:34;-1.30;99.90
7388;DHT22;3735;50.136;11.062;2022-12-10T03:32:23;-1.30;99.90
7388;DHT22;3735;50.136;11.062;2022-12-10T03:34:53;-1.30;99.90
7388;DHT22;3735;50.136;11.062;2022-12-10T03:37:22;-1.30;99.90
7388;DHT22;3735;50.136;11.062;2022-12-10T03:39:49;-1.30;99.90
7388;DHT22;3735;50.136;11.062;2022-12-10T03:42:16;-1.30;99.90
7388;DHT22;3735;50.136;11.062;2022-12-10T03:44:42;-1.30;99.90
7388;DHT22;3735;50.136;11.062;2022-12-10T03:47:11;-1.20;99.90
7388;DHT22;3735;50.136;11.062;2022-12-10T03:49:40;-1.20;99.90
7388;DHT22;3735;50.136;11.062;2022-12-10T03:52:07;-1.20;99.90
7388;DHT22;3735;50.136;11.062;2022-12-10T03:54:33;-1.20;99.90
7388;DHT22;3735;50.136;11.062;2022-12-10T03:56:59;-1.20;99.90
7388;DHT22;3735;50.136;11.062;2022-12-10T03:59:25;-1.20;99.90
7388;DHT22;3735;50.136;11.062;2022-12-10T04:01:53;-1.20;99.90
7388;DHT22;3735;50.136;11.062;2022-12-10T04:04:19;-1.20;99.90
7388;DHT22;3735;50.136;11.062;2022-12-10T04:06:45;-1.20;99.90
7388;DHT22;3735;50.136;11.062;2022-12-10T04:09:13;-1.20;99.90
7388;DHT22;3735;50.136;11.062;2022-12-10T04:11:39;-1.20;99.90
7388;DHT22;3735;50.136;11.062;2022-12-10T04:14:05;-1.20;99.90
7388;DHT22;3735;50.136;11.062;2022-12-10T04:16:52;-1.20;99.90
7388;DHT22;3735;50.136;11.062;2022-12-10T04:19:18;-1.20;99.90
7388;DHT22;3735;50.136;11.062;2022-12-10T04:21:45;-1.20;99.90
7388;DHT22;3735;50.136;11.062;2022-12-10T04:24:32;-1.20;99.90
7388;DHT22;3735;50.136;11.062;2022-12-10T04:27:22;-1.20;99.90
7388;DHT22;3735;50.136;11.062;2022-12-10T04:29:50;-1.20;99.90
7388;DHT22;3735;50.136;11.062;2022-12-10T04:32:17;-1.20;99.90
7388;DHT22;3735;50.136;11.062;2022-12-10T04:34:44;-1.20;99.90
7388;DHT22;3735;50.136;11.062;2022-12-10T04:37:10;-1.30;99.90
7388;DHT22;3735;50.136;11.062;2022-12-10T04:39:37;-1.20;99.90
7388;DHT22;3735;50.136;11.062;2022-12-10T04:42:04;-1.20;99.90
7388;DHT22;3735;50.136;11.062;2022-12-10T04:44:34;-1.20;99.90
7388;DHT22;3735;50.136;11.062;2022-12-10T04:47:01;-1.20;99.90
7388;DHT22;3735;50.136;11.062;2022-12-10T04:49:28;-1.20;99.90
7388;DHT22;3735;50.136;11.062;2022-12-10T04:51:53;-1.20;99.90
7388;DHT22;3735;50.136;11.062;2022-12-10T04:54:20;-1.20;99.90
7388;DHT22;3735;50.136;11.062;2022-12-10T04:56:47;-1.20;99.90
7388;DHT22;3735;50.136;11.062;2022-12-10T04:59:13;-1.20;99.90
7388;DHT22;3735;50.136;11.062;2022-12-10T05:01:39;-1.20;99.90
7388;DHT22;3735;50.136;11.062;2022-12-10T05:04:07;-1.20;99.90
7388;DHT22;3735;50.136;11.062;2022-12-10T05:06:35;-1.20;99.90
7388;DHT22;3735;50.136;11.062;2022-12-10T05:09:02;-1.20;99.90
7388;DHT22;3735;50.136;11.062;2022-12-10T05:11:30;-1.20;99.90
7388;DHT22;3735;50.136;11.062;2022-12-10T05:13:57;-1.20;99.90
7388;DHT22;3735;50.136;11.062;2022-12-10T05:16:24;-1.20;99.90
7388;DHT22;3735;50.136;11.062;2022-12-10T05:18:53;-1.20;99.90
7388;DHT22;3735;50.136;11.062;2022-12-10T05:21:20;-1.20;99.90
7388;DHT22;3735;50.136;11.062;2022-12-10T05:23:50;-1.20;99.90
7388;DHT22;3735;50.136;11.062;2022-12-10T05:26:19;-1.20;99.90
7388;DHT22;3735;50.136;11.062;2022-12-10T05:28:54;-1.20;99.90
7388;DHT22;3735;50.136;11.062;2022-12-10T05:31:26;-1.20;99.90
7388;DHT22;3735;50.136;11.062;2022-12-10T05:33:55;-1.20;99.90
7388;DHT22;3735;50.136;11.062;2022-12-10T05:36:28;-1.20;99.90
7388;DHT22;3735;50.136;11.062;2022-12-10T05:38:57;-1.20;99.90
7388;DHT22;3735;50.136;11.062;2022-12-10T05:41:33;-1.10;99.90
7388;DHT22;3735;50.136;11.062;2022-12-10T05:44:00;-1.10;99.90
7388;DHT22;3735;50.136;11.062;2022-12-10T05:46:29;-1.10;99.90
7388;DHT22;3735;50.136;11.062;2022-12-10T05:48:57;-1.10;99.90
7388;DHT22;3735;50.136;11.062;2022-12-10T05:51:26;-1.10;99.90
7388;DHT22;3735;50.136;11.062;2022-12-10T05:53:54;-1.10;99.90
7388;DHT22;3735;50.136;11.062;2022-12-10T05:56:23;-1.10;99.90
7388;DHT22;3735;50.136;11.062;2022-12-10T05:58:53;-1.10;99.90
7388;DHT22;3735;50.136;11.062;2022-12-10T06:01:25;-1.10;99.90
7388;DHT22;3735;50.136;11.062;2022-12-10T06:03:53;-1.10;99.90
7388;DHT22;3735;50.136;11.062;2022-12-10T06:06:23;-1.20;99.90
7388;DHT22;3735;50.136;11.062;2022-12-10T06:08:54;-1.10;99.90
7388;DHT22;3735;50.136;11.062;2022-12-10T06:11:20;-1.20;99.90
7388;DHT22;3735;50.136;11.062;2022-12-10T06:13:46;-1.20;99.90
7388;DHT22;3735;50.136;11.062;2022-12-10T06:16:14;-1.20;99.90
7388;DHT22;3735;50.136;11.062;2022-12-10T06:18:40;-1.10;99.90
7388;DHT22;3735;50.136;11.062;2022-12-10T06:21:09;-1.10;99.90
7388;DHT22;3735;50.136;11.062;2022-12-10T06:23:38;-1.10;99.90
7388;DHT22;3735;50.136;11.062;2022-12-10T06:26:10;-1.10;99.90
7388;DHT22;3735;50.136;11.062;2022-12-10T06:28:38;-1.10;99.90
7388;DHT22;3735;50.136;11.062;2022-12-10T06:31:05;-1.10;99.90
7388;DHT22;3735;50.136;11.062;2022-12-10T06:33:31;-1.10;99.90
7388;DHT22;3735;50.136;11.062;2022-12-10T06:35:58;-1.10;99.90
7388;DHT22;3735;50.136;11.062;2022-12-10T06:38:23;-1.10;99.90
7388;DHT22;3735;50.136;11.062;2022-12-10T06:40:49;-1.10;99.90
7388;DHT22;3735;50.136;11.062;2022-12-10T06:43:15;-1.10;99.90
7388;DHT22;3735;50.136;11.062;2022-12-10T06:45:42;-1.00;99.90
7388;DHT22;3735;50.136;11.062;2022-12-10T06:48:08;-1.00;99.90
7388;DHT22;3735;50.136;11.062;2022-12-10T06:50:35;-1.00;99.90
7388;DHT22;3735;50.136;11.062;2022-12-10T06:53:01;-0.90;99.90
7388;DHT22;3735;50.136;11.062;2022-12-10T06:55:27;-0.90;99.90
7388;DHT22;3735;50.136;11.062;2022-12-10T06:57:53;-0.90;99.90
7388;DHT22;3735;50.136;11.062;2022-12-10T07:00:20;-0.80;99.90
7388;DHT22;3735;50.136;11.062;2022-12-10T07:02:47;-0.80;99.90
7388;DHT22;3735;50.136;11.062;2022-12-10T07:05:13;-0.80;99.90
7388;DHT22;3735;50.136;11.062;2022-12-10T07:07:39;-0.80;99.90
7388;DHT22;3735;50.136;11.062;2022-12-10T07:10:05;-0.70;99.90
7388;DHT22;3735;50.136;11.062;2022-12-10T07:12:31;-0.70;99.90
7388;DHT22;3735;50.136;11.062;2022-12-10T07:14:57;-0.70;99.90
7388;DHT22;3735;50.136;11.062;2022-12-10T07:17:23;-0.70;99.90
7388;DHT22;3735;50.136;11.062;2022-12-10T07:19:49;-0.70;99.90
7388;DHT22;3735;50.136;11.062;2022-12-10T07:22:14;-0.60;99.90
7388;DHT22;3735;50.136;11.062;2022-12-10T07:24:40;-0.60;99.90
7388;DHT22;3735;50.136;11.062;2022-12-10T07:27:07;-0.60;99.90
7388;DHT22;3735;50.136;11.062;2022-12-10T07:29:33;-0.60;99.90
7388;DHT22;3735;50.136;11.062;2022-12-10T07:32:00;-0.60;99.90
7388;DHT22;3735;50.136;11.062;2022-12-10T07:34:26;-0.50;99.90
7388;DHT22;3735;50.136;11.062;2022-12-10T07:36:52;-0.50;99.90
7388;DHT22;3735;50.136;11.062;2022-12-10T07:39:17;-0.50;99.90
7388;DHT22;3735;50.136;11.062;2022-12-10T07:41:53;-0.40;99.90
7388;DHT22;3735;50.136;11.062;2022-12-10T07:44:21;-0.40;99.90
7388;DHT22;3735;50.136;11.062;2022-12-10T07:46:49;-0.40;99.90
7388;DHT22;3735;50.136;11.062;2022-12-10T07:49:16;-0.30;99.90
7388;DHT22;3735;50.136;11.062;2022-12-10T07:51:48;-0.30;99.90
7388;DHT22;3735;50.136;11.062;2022-12-10T07:54:15;-0.20;99.90
7388;DHT22;3735;50.136;11.062;2022-12-10T07:56:41;-0.20;99.90
7388;DHT22;3735;50.136;11.062;2022-12-10T07:59:08;-0.10;99.90
7388;DHT22;3735;50.136;11.062;2022-12-10T08:01:33;0.00;99.90
7388;DHT22;3735;50.136;11.062;2022-12-10T08:03:59;0.10;99.90
7388;DHT22;3735;50.136;11.062;2022-12-10T08:06:27;0.10;99.90
7388;DHT22;3735;50.136;11.062;2022-12-10T08:08:54;0.20;99.90
7388;DHT22;3735;50.136;11.062;2022-12-10T08:11:21;0.30;99.90
7388;DHT22;3735;50.136;11.062;2022-12-10T08:13:48;0.40;99.90
7388;DHT22;3735;50.136;11.062;2022-12-10T08:16:17;0.40;99.90
7388;DHT22;3735;50.136;11.062;2022-12-10T08:18:45;0.40;99.90
7388;DHT22;3735;50.136;11.062;2022-12-10T08:21:13;0.50;99.90
7388;DHT22;3735;50.136;11.062;2022-12-10T08:23:41;0.50;99.90
7388;DHT22;3735;50.136;11.062;2022-12-10T08:26:10;0.60;99.90
7388;DHT22;3735;50.136;11.062;2022-12-10T08:28:39;0.60;99.90
7388;DHT22;3735;50.136;11.062;2022-12-10T08:31:06;0.70;99.90
7388;DHT22;3735;50.136;11.062;2022-12-10T08:33:34;0.90;99.90
7388;DHT22;3735;50.136;11.062;2022-12-10T08:36:04;1.00;99.90
7388;DHT22;3735;50.136;11.062;2022-12-10T08:38:32;1.00;99.90
7388;DHT22;3735;50.136;11.062;2022-12-10T08:40:58;1.10;99.90
7388;DHT22;3735;50.136;11.062;2022-12-10T08:43:24;1.20;99.90
7388;DHT22;3735;50.136;11.062;2022-12-10T08:45:51;1.30;99.90
7388;DHT22;3735;50.136;11.062;2022-12-10T08:48:16;1.40;99.90
7388;DHT22;3735;50.136;11.062;2022-12-10T08:50:42;1.50;99.90
7388;DHT22;3735;50.136;11.062;2022-12-10T08:53:08;1.70;99.90
7388;DHT22;3735;50.136;11.062;2022-12-10T08:55:38;1.90;99.90
7388;DHT22;3735;50.136;11.062;2022-12-10T08:58:05;2.10;99.90
7388;DHT22;3735;50.136;11.062;2022-12-10T09:00:30;2.20;99.90
7388;DHT22;3735;50.136;11.062;2022-12-10T09:02:56;2.30;99.90
7388;DHT22;3735;50.136;11.062;2022-12-10T09:05:22;2.20;99.90
7388;DHT22;3735;50.136;11.062;2022-12-10T09:07:48;2.30;99.90
7388;DHT22;3735;50.136;11.062;2022-12-10T09:10:14;2.40;99.90
7388;DHT22;3735;50.136;11.062;2022-12-10T09:12:41;2.50;99.90
7388;DHT22;3735;50.136;11.062;2022-12-10T09:15:09;2.60;99.90
7388;DHT22;3735;50.136;11.062;2022-12-10T09:17:36;2.70;99.90
7388;DHT22;3735;50.136;11.062;2022-12-10T09:20:04;2.90;99.90
7388;DHT22;3735;50.136;11.062;2022-12-10T09:22:30;3.00;99.90
7388;DHT22;3735;50.136;11.062;2022-12-10T09:24:56;3.20;99.90
7388;DHT22;3735;50.136;11.062;2022-12-10T09:27:22;3.30;99.90
7388;DHT22;3735;50.136;11.062;2022-12-10T09:29:48;3.40;99.90
7388;DHT22;3735;50.136;11.062;2022-12-10T09:32:14;3.50;99.90
7388;DHT22;3735;50.136;11.062;2022-12-10T09:34:40;3.70;99.90
7388;DHT22;3735;50.136;11.062;2022-12-10T09:37:05;4.10;99.90
7388;DHT22;3735;50.136;11.062;2022-12-10T09:39:31;4.40;99.90
7388;DHT22;3735;50.136;11.062;2022-12-10T09:45:40;5.10;99.90
7388;DHT22;3735;50.136;11.062;2022-12-10T09:48:30;5.40;99.90
7388;DHT22;3735;50.136;11.062;2022-12-10T09:51:21;5.80;99.90
7388;DHT22;3735;50.136;11.062;2022-12-10T09:53:53;5.90;99.90
7388;DHT22;3735;50.136;11.062;2022-12-10T09:56:28;5.80;99.90
7388;DHT22;3735;50.136;11.062;2022-12-10T09:59:03;6.00;99.90
7388;DHT22;3735;50.136;11.062;2022-12-10T10:01:41;6.70;99.90
7388;DHT22;3735;50.136;11.062;2022-12-10T10:04:09;7.30;99.90
7388;DHT22;3735;50.136;11.062;2022-12-10T10:06:35;7.70;99.90
7388;DHT22;3735;50.136;11.062;2022-12-10T10:09:02;7.90;99.90
7388;DHT22;3735;50.136;11.062;2022-12-10T10:11:33;8.10;99.90
7388;DHT22;3735;50.136;11.062;2022-12-10T10:14:11;8.20;99.90
7388;DHT22;3735;50.136;11.062;2022-12-10T10:16:51;8.90;99.90
7388;DHT22;3735;50.136;11.062;2022-12-10T10:19:25;9.60;99.90
7388;DHT22;3735;50.136;11.062;2022-12-10T10:21:54;9.90;99.90
7388;DHT22;3735;50.136;11.062;2022-12-10T10:24:35;9.80;99.90
7388;DHT22;3735;50.136;11.062;2022-12-10T10:27:30;9.00;99.90
7388;DHT22;3735;50.136;11.062;2022-12-10T10:29:59;7.90;99.90
7388;DHT22;3735;50.136;11.062;2022-12-10T10:34:58;6.30;99.90
7388;DHT22;3735;50.136;11.062;2022-12-10T10:39:59;5.20;99.90
7388;DHT22;3735;50.136;11.062;2022-12-10T10:42:32;4.70;99.90
7388;DHT22;3735;50.136;11.062;2022-12-10T10:45:30;4.30;99.90
7388;DHT22;3735;50.136;11.062;2022-12-10T10:50:36;3.70;99.90
7388;DHT22;3735;50.136;11.062;2022-12-10T10:56:27;3.50;99.90
7388;DHT22;3735;50.136;11.062;2022-12-10T11:01:50;3.30;99.90
7388;DHT22;3735;50.136;11.062;2022-12-10T11:04:24;3.30;99.90
7388;DHT22;3735;50.136;11.062;2022-12-10T11:06:56;3.20;99.90
7388;DHT22;3735;50.136;11.062;2022-12-10T11:09:31;3.20;99.90
7388;DHT22;3735;50.136;11.062;2022-12-10T11:12:04;3.10;99.90
7388;DHT22;3735;50.136;11.062;2022-12-10T11:14:45;3.10;99.90
7388;DHT22;3735;50.136;11.062;2022-12-10T11:20:17;3.10;99.90
7388;DHT22;3735;50.136;11.062;2022-12-10T11:22:51;3.10;99.90
7388;DHT22;3735;50.136;11.062;2022-12-10T11:34:19;3.10;99.90
7388;DHT22;3735;50.136;11.062;2022-12-10T11:40:22;3.00;99.90
7388;DHT22;3735;50.136;11.062;2022-12-10T11:46:12;2.90;99.90
7388;DHT22;3735;50.136;11.062;2022-12-10T11:49:13;2.80;99.90
7388;DHT22;3735;50.136;11.062;2022-12-10T12:00:20;2.50;99.90
7388;DHT22;3735;50.136;11.062;2022-12-10T12:12:33;2.30;99.90
7388;DHT22;3735;50.136;11.062;2022-12-10T12:15:28;2.20;99.90
7388;DHT22;3735;50.136;11.062;2022-12-10T12:18:23;2.10;99.90
7388;DHT22;3735;50.136;11.062;2022-12-10T12:21:01;2.10;99.90
7388;DHT22;3735;50.136;11.062;2022-12-10T12:23:51;2.00;99.90
7388;DHT22;3735;50.136;11.062;2022-12-10T12:29:02;1.90;99.90
7388;DHT22;3735;50.136;11.062;2022-12-10T12:31:59;1.90;99.90
7388;DHT22;3735;50.136;11.062;2022-12-10T12:34:49;1.90;99.90
7388;DHT22;3735;50.136;11.062;2022-12-10T12:37:21;1.70;99.90
7388;DHT22;3735;50.136;11.062;2022-12-10T12:40:02;1.70;99.90
7388;DHT22;3735;50.136;11.062;2022-12-10T12:42:53;1.60;99.90
7388;DHT22;3735;50.136;11.062;2022-12-10T12:45:39;1.50;99.90
7388;DHT22;3735;50.136;11.062;2022-12-10T12:53:43;1.40;99.90
7388;DHT22;3735;50.136;11.062;2022-12-10T13:02:21;1.30;99.90
7388;DHT22;3735;50.136;11.062;2022-12-10T13:04:48;1.30;99.90
7388;DHT22;3735;50.136;11.062;2022-12-10T13:09:49;1.20;99.90
7388;DHT22;3735;50.136;11.062;2022-12-10T13:12:27;1.20;99.90
7388;DHT22;3735;50.136;11.062;2022-12-10T13:15:32;1.20;99.90
7388;DHT22;3735;50.136;11.062;2022-12-10T13:18:20;1.20;99.90
7388;DHT22;3735;50.136;11.062;2022-12-10T13:23:52;1.10;99.90
7388;DHT22;3735;50.136;11.062;2022-12-10T13:26:29;1.10;99.90
7388;DHT22;3735;50.136;11.062;2022-12-10T13:29:24;1.10;99.90
7388;DHT22;3735;50.136;11.062;2022-12-10T13:32:18;1.10;99.90
7388;DHT22;3735;50.136;11.062;2022-12-10T13:34:47;1.10;99.90
7388;DHT22;3735;50.136;11.062;2022-12-10T13:37:36;1.10;99.90
7388;DHT22;3735;50.136;11.062;2022-12-10T13:46:30;1.10;99.90
7388;DHT22;3735;50.136;11.062;2022-12-10T13:49:18;1.10;99.90
7388;DHT22;3735;50.136;11.062;2022-12-10T13:52:02;1.10;99.90
7388;DHT22;3735;50.136;11.062;2022-12-10T13:57:33;1.10;99.90
7388;DHT22;3735;50.136;11.062;2022-12-10T14:00:19;1.10;99.90
7388;DHT22;3735;50.136;11.062;2022-12-10T14:06:12;1.00;99.90
7388;DHT22;3735;50.136;11.062;2022-12-10T14:11:42;1.00;99.90
7388;DHT22;3735;50.136;11.062;2022-12-10T14:14:52;1.10;99.90
7388;DHT22;3735;50.136;11.062;2022-12-10T14:17:18;1.00;99.90
7388;DHT22;3735;50.136;11.062;2022-12-10T14:19:49;1.00;99.90
7388;DHT22;3735;50.136;11.062;2022-12-10T14:25:22;0.80;99.90
7388;DHT22;3735;50.136;11.062;2022-12-10T14:27:50;0.70;99.90
7388;DHT22;3735;50.136;11.062;2022-12-10T14:30:25;0.60;99.90
7388;DHT22;3735;50.136;11.062;2022-12-10T14:32:59;0.60;99.90
7388;DHT22;3735;50.136;11.062;2022-12-10T14:35:27;0.50;99.90
7388;DHT22;3735;50.136;11.062;2022-12-10T14:37:58;0.40;99.90
7388;DHT22;3735;50.136;11.062;2022-12-10T14:40:38;0.30;99.90
7388;DHT22;3735;50.136;11.062;2022-12-10T14:43:16;0.30;99.90
7388;DHT22;3735;50.136;11.062;2022-12-10T14:45:51;0.10;99.90
7388;DHT22;3735;50.136;11.062;2022-12-10T14:48:21;0.10;99.90
7388;DHT22;3735;50.136;11.062;2022-12-10T14:50:48;0.00;99.90
7388;DHT22;3735;50.136;11.062;2022-12-10T14:53:27;-0.10;99.90
7388;DHT22;3735;50.136;11.062;2022-12-10T14:55:58;-0.10;99.90
7388;DHT22;3735;50.136;11.062;2022-12-10T15:01:05;-0.20;99.90
7388;DHT22;3735;50.136;11.062;2022-12-10T15:03:35;-0.30;99.90
7388;DHT22;3735;50.136;11.062;2022-12-10T15:06:10;-0.30;99.90
7388;DHT22;3735;50.136;11.062;2022-12-10T15:08:36;-0.30;99.90
7388;DHT22;3735;50.136;11.062;2022-12-10T15:11:02;-0.40;99.90
7388;DHT22;3735;50.136;11.062;2022-12-10T15:13:40;-0.40;99.90
7388;DHT22;3735;50.136;11.062;2022-12-10T15:16:27;-0.50;99.90
7388;DHT22;3735;50.136;11.062;2022-12-10T15:19:16;-0.50;99.90
7388;DHT22;3735;50.136;11.062;2022-12-10T15:21:46;-0.50;99.90
7388;DHT22;3735;50.136;11.062;2022-12-10T15:24:20;-0.50;99.90
7388;DHT22;3735;50.136;11.062;2022-12-10T15:26:51;-0.50;99.90
7388;DHT22;3735;50.136;11.062;2022-12-10T15:29:37;-0.50;99.90
7388;DHT22;3735;50.136;11.062;2022-12-10T15:34:43;-0.40;99.90
7388;DHT22;3735;50.136;11.062;2022-12-10T15:37:21;-0.40;99.90
7388;DHT22;3735;50.136;11.062;2022-12-10T15:40:00;-0.40;99.90
7388;DHT22;3735;50.136;11.062;2022-12-10T15:42:36;-0.30;99.90
7388;DHT22;3735;50.136;11.062;2022-12-10T15:47:42;-0.30;99.90
7388;DHT22;3735;50.136;11.062;2022-12-10T15:50:09;-0.20;99.90
7388;DHT22;3735;50.136;11.062;2022-12-10T15:52:35;-0.20;99.90
7388;DHT22;3735;50.136;11.062;2022-12-10T15:55:01;-0.20;99.90
7388;DHT22;3735;50.136;11.062;2022-12-10T15:57:36;-0.20;99.90
7388;DHT22;3735;50.136;11.062;2022-12-10T16:00:21;-0.20;99.90
7388;DHT22;3735;50.136;11.062;2022-12-10T16:03:05;-0.10;99.90
7388;DHT22;3735;50.136;11.062;2022-12-10T16:05:38;-0.10;99.90
7388;DHT22;3735;50.136;11.062;2022-12-10T16:08:36;-0.20;99.90
7388;DHT22;3735;50.136;11.062;2022-12-10T16:11:12;-0.20;99.90
7388;DHT22;3735;50.136;11.062;2022-12-10T16:13:50;-0.20;99.90
7388;DHT22;3735;50.136;11.062;2022-12-10T16:16:18;-0.20;99.90
7388;DHT22;3735;50.136;11.062;2022-12-10T16:18:45;-0.20;99.90
7388;DHT22;3735;50.136;11.062;2022-12-10T16:21:11;-0.20;99.90
7388;DHT22;3735;50.136;11.062;2022-12-10T16:23:37;-0.20;99.90
7388;DHT22;3735;50.136;11.062;2022-12-10T16:26:15;-0.20;99.90
7388;DHT22;3735;50.136;11.062;2022-12-10T16:28:43;-0.20;99.90
7388;DHT22;3735;50.136;11.062;2022-12-10T16:31:14;-0.20;99.90
7388;DHT22;3735;50.136;11.062;2022-12-10T16:33:41;-0.20;99.90
7388;DHT22;3735;50.136;11.062;2022-12-10T16:36:07;-0.20;99.90
7388;DHT22;3735;50.136;11.062;2022-12-10T16:38:35;-0.20;99.90
7388;DHT22;3735;50.136;11.062;2022-12-10T16:41:01;-0.20;99.90
7388;DHT22;3735;50.136;11.062;2022-12-10T16:43:28;-0.20;99.90
7388;DHT22;3735;50.136;11.062;2022-12-10T16:45:55;-0.30;99.90
7388;DHT22;3735;50.136;11.062;2022-12-10T16:48:22;-0.30;99.90
7388;DHT22;3735;50.136;11.062;2022-12-10T16:50:50;-0.20;99.90
7388;DHT22;3735;50.136;11.062;2022-12-10T16:55:44;-0.20;99.90
7388;DHT22;3735;50.136;11.062;2022-12-10T16:58:13;-0.30;99.90
7388;DHT22;3735;50.136;11.062;2022-12-10T17:00:45;-0.30;99.90
7388;DHT22;3735;50.136;11.062;2022-12-10T17:03:13;-0.30;99.90
7388;DHT22;3735;50.136;11.062;2022-12-10T17:08:20;-0.30;99.90
7388;DHT22;3735;50.136;11.062;2022-12-10T17:10:47;-0.30;99.90
7388;DHT22;3735;50.136;11.062;2022-12-10T17:13:33;-0.30;99.90
7388;DHT22;3735;50.136;11.062;2022-12-10T17:16:01;-0.30;99.90
7388;DHT22;3735;50.136;11.062;2022-12-10T17:18:28;-0.30;99.90
7388;DHT22;3735;50.136;11.062;2022-12-10T17:20:53;-0.30;99.90
7388;DHT22;3735;50.136;11.062;2022-12-10T17:23:19;-0.30;99.90
7388;DHT22;3735;50.136;11.062;2022-12-10T17:25:47;-0.30;99.90
7388;DHT22;3735;50.136;11.062;2022-12-10T17:28:20;-0.30;99.90
7388;DHT22;3735;50.136;11.062;2022-12-10T17:30:48;-0.30;99.90
7388;DHT22;3735;50.136;11.062;2022-12-10T17:33:18;-0.30;99.90
7388;DHT22;3735;50.136;11.062;2022-12-10T17:35:48;-0.30;99.90
7388;DHT22;3735;50.136;11.062;2022-12-10T17:38:18;-0.40;99.90
7388;DHT22;3735;50.136;11.062;2022-12-10T17:40:45;-0.40;99.90
7388;DHT22;3735;50.136;11.062;2022-12-10T17:43:12;-0.40;99.90
7388;DHT22;3735;50.136;11.062;2022-12-10T17:45:39;-0.50;99.90
7388;DHT22;3735;50.136;11.062;2022-12-10T17:48:06;-0.60;99.90
7388;DHT22;3735;50.136;11.062;2022-12-10T17:50:36;-0.70;99.90
7388;DHT22;3735;50.136;11.062;2022-12-10T17:53:04;-0.80;99.90
7388;DHT22;3735;50.136;11.062;2022-12-10T17:55:36;-0.80;99.90
7388;DHT22;3735;50.136;11.062;2022-12-10T17:58:03;-0.90;99.90
7388;DHT22;3735;50.136;11.062;2022-12-10T18:00:33;-1.00;99.90
7388;DHT22;3735;50.136;11.062;2022-12-10T18:03:01;-1.00;99.90
7388;DHT22;3735;50.136;11.062;2022-12-10T18:05:27;-1.10;99.90
7388;DHT22;3735;50.136;11.062;2022-12-10T18:07:53;-1.20;99.90
7388;DHT22;3735;50.136;11.062;2022-12-10T18:10:22;-1.30;99.90
7388;DHT22;3735;50.136;11.062;2022-12-10T18:12:51;-1.40;99.90